PAEG

Details ICAO PAEG (EAA)
Name Eagle
Region USA (Alaska)
Timezone America/Anchorage (UTC-8.0)
Plans Departing 5
Arriving 10
Stats Elevation 880 ft / 268 m (AMSL)
Location 64.776393° -141.150921°
Runways 1
Magnetic Variation 19.301° E
Sunrise 2018-05-27 11:23:06 UTC / 2018-05-27 03:23:06 Local
Sunset 2018-05-28 07:23:24 UTC / 2018-05-27 23:23:24 Local
Advertisement - Login to hide

Runways

ID Width Length Bearing (true) Bearing (mag) Surface Threshold Offset Overrun Length
06 75 ft / 23 m 3,603 ft / 1,098 m 90.99° 71.69° Gravel 0 ft / 0 m 0 ft / 0 m
24 75 ft / 23 m 3,603 ft / 1,098 m 271.01° 251.71° Gravel 0 ft / 0 m 0 ft / 0 m

Map

Weather


0- 5 10 15 20 25 30 35+ Temperature / ° C

Clouds and Precipitation
Forecast for 2018-05-27 12:00 UTC. Updated an hour ago

Ground ~20,000 ft ~40,000 ft Winds

METAR

PAEG 271153Z AUTO 16003KT 10SM CLR M01/M03 A2967 RMK AO2 SLP053 7//// T10061028 10111 21006 53011 TSNO $

TAF

Not found
Warning: Do not use this data for real-world aviation or navigation. No guarantee of current accuracy is given.